createdAt,value
2022-11-14T00:00:50.865Z,30.40
2022-11-14T00:01:50.859Z,30.60
2022-11-14T00:02:51.119Z,29.70
2022-11-14T00:03:50.904Z,30.30
2022-11-14T00:04:50.834Z,28.30
2022-11-14T00:05:50.908Z,30.20
2022-11-14T00:06:50.871Z,28.70
2022-11-14T00:07:50.812Z,28.20
2022-11-14T00:08:50.823Z,30.60
2022-11-14T00:09:50.793Z,29.90
2022-11-14T00:10:50.805Z,29.30
2022-11-14T00:11:50.807Z,27.80
2022-11-14T00:12:50.765Z,22.80
2022-11-14T00:13:50.749Z,23.60
2022-11-14T00:14:50.792Z,26.00
2022-11-14T00:16:23.400Z,24.00
2022-11-14T00:16:50.730Z,25.30
2022-11-14T00:17:50.718Z,21.30
2022-11-14T00:18:50.712Z,23.50
2022-11-14T00:19:50.727Z,21.10
2022-11-14T00:20:50.682Z,20.10
2022-11-14T00:21:51.688Z,23.60
2022-11-14T00:22:50.783Z,24.70
2022-11-14T00:23:50.677Z,22.40
2022-11-14T00:24:50.704Z,24.90
2022-11-14T00:25:50.700Z,23.60
2022-11-14T00:26:50.651Z,22.50
2022-11-14T00:27:50.625Z,21.40
2022-11-14T00:28:51.636Z,20.20
2022-11-14T00:29:50.652Z,24.60
2022-11-14T00:30:50.620Z,21.30
2022-11-14T00:31:50.623Z,20.30
2022-11-14T00:32:50.606Z,25.60
2022-11-14T00:33:50.596Z,20.60
2022-11-14T00:34:50.629Z,15.90
2022-11-14T00:35:50.603Z,22.40
2022-11-14T00:36:50.577Z,16.80
2022-11-14T00:37:50.574Z,21.60
2022-11-14T00:38:50.649Z,22.50
2022-11-14T00:39:50.586Z,18.20
2022-11-14T00:40:50.558Z,19.50
2022-11-14T00:41:50.539Z,19.30
2022-11-14T00:42:50.559Z,22.80
2022-11-14T00:43:50.547Z,16.30
2022-11-14T00:44:50.565Z,22.70
2022-11-14T00:45:50.511Z,18.00
2022-11-14T00:46:50.504Z,18.70
2022-11-14T00:47:50.504Z,22.90
2022-11-14T00:48:50.486Z,19.10
2022-11-14T00:49:50.508Z,18.40
2022-11-14T00:50:50.473Z,21.00
2022-11-14T00:51:50.469Z,19.80
2022-11-14T00:52:50.457Z,21.10
2022-11-14T00:53:50.448Z,17.60
2022-11-14T00:54:50.550Z,25.60
2022-11-14T00:55:50.433Z,18.40
2022-11-14T00:56:50.437Z,21.00
2022-11-14T00:57:50.420Z,19.80
2022-11-14T00:58:50.414Z,17.50
2022-11-14T00:59:50.435Z,22.30
2022-11-14T01:00:50.435Z,22.30
2022-11-14T01:01:52.995Z,18.10
2022-11-14T01:02:51.377Z,19.90
2022-11-14T01:03:50.380Z,22.90
2022-11-14T01:04:50.373Z,23.30
2022-11-14T01:05:50.393Z,24.20
2022-11-14T01:06:50.361Z,21.60
2022-11-14T01:07:50.356Z,24.30
2022-11-14T01:08:50.414Z,20.60
2022-11-14T01:09:50.338Z,22.10
2022-11-14T01:10:50.426Z,21.90
2022-11-14T01:11:50.325Z,20.10
2022-11-14T01:12:50.307Z,19.40
2022-11-14T01:13:50.326Z,19.60
2022-11-14T01:14:50.320Z,19.70
2022-11-14T01:15:50.288Z,20.70
2022-11-14T01:16:50.281Z,24.60
2022-11-14T01:17:50.272Z,24.10
2022-11-14T01:18:50.264Z,22.80
2022-11-14T01:19:50.289Z,23.20
2022-11-14T01:20:50.250Z,21.60
2022-11-14T01:21:50.237Z,21.50
2022-11-14T01:22:50.249Z,19.70
2022-11-14T01:23:50.224Z,21.30
2022-11-14T01:24:50.254Z,22.80
2022-11-14T01:25:50.206Z,24.40
2022-11-14T01:26:50.262Z,25.10
2022-11-14T01:27:51.199Z,26.80
2022-11-14T01:28:50.183Z,30.70
2022-11-14T01:29:50.205Z,29.10
2022-11-14T01:30:50.172Z,26.10
2022-11-14T01:31:50.171Z,33.60
2022-11-14T01:32:50.159Z,27.70
2022-11-14T01:33:50.167Z,27.80
2022-11-14T01:34:50.167Z,26.30
2022-11-14T01:35:50.136Z,25.00
2022-11-14T01:36:50.129Z,26.80
2022-11-14T01:37:50.173Z,25.40
2022-11-14T01:38:50.123Z,24.60
2022-11-14T01:39:50.133Z,26.80
2022-11-14T01:40:50.098Z,27.60
2022-11-14T01:41:50.097Z,27.20
2022-11-14T01:42:50.179Z,25.00
2022-11-14T01:43:50.091Z,26.20
2022-11-14T01:44:50.107Z,26.20
2022-11-14T01:45:50.065Z,25.20
2022-11-14T01:46:50.061Z,30.10
2022-11-14T01:47:50.059Z,29.70
2022-11-14T01:48:50.042Z,27.60
2022-11-14T01:49:50.050Z,25.50
2022-11-14T01:50:50.026Z,24.40
2022-11-14T01:51:50.021Z,27.60
2022-11-14T01:52:50.017Z,29.80
2022-11-14T01:53:50.006Z,27.60
2022-11-14T01:54:50.025Z,28.60
2022-11-14T01:55:49.995Z,28.00
2022-11-14T01:56:49.974Z,29.60
2022-11-14T01:57:49.975Z,27.70
2022-11-14T01:58:50.034Z,29.00
2022-11-14T01:59:49.991Z,29.00
2022-11-14T02:00:49.952Z,26.50
2022-11-14T02:01:50.007Z,29.70
2022-11-14T02:02:49.945Z,27.10
2022-11-14T02:03:49.916Z,26.70
2022-11-14T02:04:49.951Z,32.50
2022-11-14T02:05:49.903Z,26.10
2022-11-14T02:06:49.930Z,27.70
2022-11-14T02:07:49.893Z,30.70
2022-11-14T02:08:49.883Z,25.20
2022-11-14T02:09:49.914Z,26.40
2022-11-14T02:10:49.877Z,28.20
2022-11-14T02:11:49.870Z,25.50
2022-11-14T02:12:49.856Z,29.70
2022-11-14T02:13:49.848Z,27.50
2022-11-14T02:14:49.912Z,25.90
2022-11-14T02:15:49.865Z,27.60
2022-11-14T02:17:14.362Z,29.40
2022-11-14T02:17:51.827Z,26.50
2022-11-14T02:18:49.815Z,28.00
2022-11-14T02:19:49.802Z,27.40
2022-11-14T02:20:49.824Z,25.20
2022-11-14T02:21:49.789Z,25.20
2022-11-14T02:22:49.794Z,27.30
2022-11-14T02:23:49.784Z,28.40
2022-11-14T02:24:49.776Z,29.70
2022-11-14T02:25:49.791Z,26.90
2022-11-14T02:26:49.760Z,28.40
2022-11-14T02:27:49.756Z,27.80
2022-11-14T02:28:49.767Z,28.40
2022-11-14T02:29:49.738Z,27.90
2022-11-14T02:30:49.830Z,27.20
2022-11-14T02:31:49.725Z,28.60
2022-11-14T02:33:51.711Z,26.50
2022-11-14T02:34:49.720Z,28.50
2022-11-14T02:35:49.762Z,25.00
2022-11-14T02:36:49.684Z,27.60
2022-11-14T02:37:49.693Z,27.40
2022-11-14T02:38:49.670Z,26.60
2022-11-14T02:39:49.662Z,29.20
2022-11-14T02:40:49.672Z,27.80
2022-11-14T02:41:49.643Z,27.20
2022-11-14T02:42:49.633Z,26.50
2022-11-14T02:43:49.633Z,27.80
2022-11-14T02:44:49.637Z,28.70
2022-11-14T02:45:49.645Z,26.90
2022-11-14T02:46:49.699Z,26.10
2022-11-14T02:47:49.604Z,23.60
2022-11-14T02:48:49.604Z,26.70
2022-11-14T02:49:49.593Z,23.00
2022-11-14T02:50:49.636Z,25.10
2022-11-14T02:51:49.580Z,28.60
2022-11-14T02:52:49.563Z,25.80
2022-11-14T02:53:49.562Z,24.90
2022-11-14T02:54:54.264Z,26.20
2022-11-14T02:55:51.580Z,22.60
2022-11-14T02:56:49.538Z,21.10
2022-11-14T02:57:49.530Z,23.40
2022-11-14T02:58:49.521Z,23.50
2022-11-14T02:59:49.516Z,20.00
2022-11-14T03:01:18.660Z,22.30
2022-11-14T03:01:51.649Z,17.70
2022-11-14T03:02:49.492Z,17.30
2022-11-14T03:03:49.504Z,19.50
2022-11-14T03:04:49.477Z,17.10
2022-11-14T03:05:49.497Z,16.90
2022-11-14T03:06:49.488Z,16.80
2022-11-14T03:07:49.452Z,18.70
2022-11-14T03:08:49.444Z,18.00
2022-11-14T03:09:49.441Z,16.10
2022-11-14T03:10:49.467Z,15.70
2022-11-14T03:11:49.430Z,17.80
2022-11-14T03:12:49.420Z,14.50
2022-11-14T03:13:49.421Z,15.90
2022-11-14T03:14:49.401Z,15.60
2022-11-14T03:15:49.423Z,17.40
2022-11-14T03:16:49.394Z,16.20
2022-11-14T03:17:49.474Z,16.70
2022-11-14T03:18:49.375Z,15.70
2022-11-14T03:19:49.369Z,17.60
2022-11-14T03:20:49.356Z,16.40
2022-11-14T03:21:49.381Z,19.40
2022-11-14T03:22:49.352Z,17.60
2022-11-14T03:23:49.331Z,18.90
2022-11-14T03:24:49.323Z,18.00
2022-11-14T03:25:49.317Z,19.20
2022-11-14T03:26:49.331Z,18.50
2022-11-14T03:27:49.306Z,19.80
2022-11-14T03:28:49.294Z,16.90
2022-11-14T03:29:49.287Z,20.60
2022-11-14T03:30:49.281Z,19.80
2022-11-14T03:31:49.299Z,19.60
2022-11-14T03:32:49.266Z,18.70
2022-11-14T03:33:49.332Z,15.40
2022-11-14T03:34:49.254Z,20.10
2022-11-14T03:35:49.243Z,19.70
2022-11-14T03:36:49.263Z,18.80
2022-11-14T03:37:51.755Z,17.20
2022-11-14T03:38:50.225Z,17.20
2022-11-14T03:39:49.209Z,15.10
2022-11-14T03:40:49.215Z,16.70
2022-11-14T03:41:49.279Z,15.60
2022-11-14T03:42:49.187Z,17.70
2022-11-14T03:43:49.196Z,18.80
2022-11-14T03:44:49.180Z,18.00
2022-11-14T03:45:49.167Z,19.10
2022-11-14T03:46:49.178Z,18.70
2022-11-14T03:47:49.157Z,16.30
2022-11-14T03:48:49.141Z,18.00
2022-11-14T03:49:49.208Z,17.10
2022-11-14T03:50:49.126Z,19.00
2022-11-14T03:51:49.165Z,15.40
2022-11-14T03:52:49.111Z,17.40
2022-11-14T03:53:49.107Z,16.00
2022-11-14T03:54:49.098Z,17.40
2022-11-14T03:55:49.089Z,17.30
2022-11-14T03:56:49.116Z,17.70
2022-11-14T03:57:49.078Z,21.10
2022-11-14T03:58:49.069Z,17.60
2022-11-14T03:59:49.060Z,18.40
2022-11-14T04:00:49.136Z,18.40
2022-11-14T04:01:49.066Z,17.90
2022-11-14T04:02:49.033Z,22.00
2022-11-14T04:03:49.026Z,19.60
2022-11-14T04:04:49.023Z,15.70
2022-11-14T04:05:49.132Z,19.90
2022-11-14T04:06:49.067Z,16.20
2022-11-14T04:07:48.995Z,18.10
2022-11-14T04:08:48.992Z,18.30
2022-11-14T04:09:48.982Z,14.20
2022-11-14T04:10:48.985Z,17.10
2022-11-14T04:11:49.010Z,18.30
2022-11-14T04:12:48.964Z,18.90
2022-11-14T04:13:48.956Z,16.20
2022-11-14T04:14:48.941Z,17.70
2022-11-14T04:15:48.963Z,18.40
2022-11-14T04:16:48.969Z,17.30
2022-11-14T04:17:48.952Z,14.90
2022-11-14T04:18:48.923Z,19.60
2022-11-14T04:19:48.914Z,18.50
2022-11-14T04:20:48.910Z,19.80
2022-11-14T04:21:48.977Z,21.60
2022-11-14T04:22:48.928Z,19.60
2022-11-14T04:23:48.870Z,19.00
2022-11-14T04:24:49.873Z,15.80
2022-11-14T04:25:48.868Z,14.80
2022-11-14T04:26:48.855Z,16.40
2022-11-14T04:27:48.874Z,16.30
2022-11-14T04:28:48.848Z,18.60
2022-11-14T04:29:48.835Z,16.50
2022-11-14T04:30:48.827Z,15.60
2022-11-14T04:31:48.824Z,17.80
2022-11-14T04:32:48.834Z,19.80
2022-11-14T04:33:48.802Z,16.50
2022-11-14T04:34:48.796Z,17.90
2022-11-14T04:35:48.792Z,16.50
2022-11-14T04:36:48.782Z,20.10
2022-11-14T04:37:48.864Z,18.40
2022-11-14T04:38:48.760Z,18.10
2022-11-14T04:39:48.746Z,17.00
2022-11-14T04:40:48.747Z,25.00
2022-11-14T04:41:48.751Z,28.60
2022-11-14T04:42:48.758Z,26.60
2022-11-14T04:43:50.918Z,28.50
2022-11-14T04:44:49.781Z,27.50
2022-11-14T04:45:48.713Z,28.30
2022-11-14T04:46:48.721Z,24.90
2022-11-14T04:47:49.725Z,26.00
2022-11-14T04:48:48.687Z,24.90
2022-11-14T04:49:48.682Z,27.30
2022-11-14T04:50:48.669Z,26.00
2022-11-14T04:51:48.669Z,29.00
2022-11-14T04:52:48.685Z,26.20
2022-11-14T04:53:48.748Z,26.30
2022-11-14T04:54:48.645Z,28.90
2022-11-14T04:55:48.639Z,26.70
2022-11-14T04:56:48.630Z,27.80
2022-11-14T04:57:48.651Z,27.50
2022-11-14T04:58:48.637Z,28.80
2022-11-14T04:59:48.620Z,26.30
2022-11-14T05:00:48.593Z,26.30
2022-11-14T05:01:48.640Z,26.90
2022-11-14T05:02:48.604Z,27.70
2022-11-14T05:03:48.572Z,27.20
2022-11-14T05:04:48.557Z,27.70
2022-11-14T05:05:48.560Z,27.40
2022-11-14T05:06:48.576Z,25.20
2022-11-14T05:07:48.569Z,25.80
2022-11-14T05:08:48.561Z,27.70
2022-11-14T05:09:49.524Z,28.70
2022-11-14T05:10:48.522Z,26.90
2022-11-14T05:11:48.506Z,26.00
2022-11-14T05:12:48.537Z,29.50
2022-11-14T05:13:48.499Z,26.80
2022-11-14T05:14:48.488Z,28.30
2022-11-14T05:15:48.489Z,28.60
2022-11-14T05:16:48.486Z,27.00
2022-11-14T05:17:48.495Z,26.70
2022-11-14T05:18:48.466Z,27.50
2022-11-14T05:19:48.459Z,25.70
2022-11-14T05:20:48.444Z,28.00
2022-11-14T05:21:48.440Z,28.10
2022-11-14T05:22:48.452Z,27.90
2022-11-14T05:23:48.462Z,27.10
2022-11-14T05:24:48.411Z,27.30
2022-11-14T05:25:48.406Z,27.50
2022-11-14T05:26:48.407Z,29.00
2022-11-14T05:27:48.428Z,27.10
2022-11-14T05:28:48.372Z,28.50
2022-11-14T05:29:49.388Z,27.20
2022-11-14T05:30:48.381Z,26.40
2022-11-14T05:31:48.369Z,25.80
2022-11-14T05:32:48.389Z,28.40
2022-11-14T05:33:48.356Z,26.80
2022-11-14T05:34:48.338Z,26.00
2022-11-14T05:35:48.338Z,25.50
2022-11-14T05:36:48.326Z,27.30
2022-11-14T05:37:48.343Z,23.90
2022-11-14T05:38:48.310Z,29.70
2022-11-14T05:39:48.303Z,26.60
2022-11-14T05:40:48.301Z,26.70
2022-11-14T05:41:48.297Z,26.10
2022-11-14T05:42:48.311Z,27.30
2022-11-14T05:43:48.275Z,27.80
2022-11-14T05:44:48.268Z,28.60
2022-11-14T05:45:48.252Z,26.00
2022-11-14T05:46:48.279Z,28.10
2022-11-14T05:47:48.248Z,25.40
2022-11-14T05:48:48.241Z,24.60
2022-11-14T05:49:48.235Z,25.20
2022-11-14T05:50:48.223Z,25.80
2022-11-14T05:51:48.241Z,26.70
2022-11-14T05:52:48.206Z,27.30
2022-11-14T05:53:48.199Z,26.20
2022-11-14T05:54:48.199Z,28.40
2022-11-14T05:55:48.178Z,26.20
2022-11-14T05:56:48.221Z,25.50
2022-11-14T05:57:48.161Z,24.90
2022-11-14T05:58:48.160Z,23.70
2022-11-14T05:59:48.147Z,25.80
2022-11-14T06:00:53.986Z,25.30
2022-11-14T06:01:50.237Z,25.10
2022-11-14T06:02:48.139Z,23.90
2022-11-14T06:03:48.115Z,25.60
2022-11-14T06:04:48.114Z,23.60
2022-11-14T06:05:48.104Z,25.20
2022-11-14T06:06:48.150Z,22.80
2022-11-14T06:07:48.126Z,23.00
2022-11-14T06:08:48.081Z,23.50
2022-11-14T06:09:48.065Z,24.40
2022-11-14T06:10:48.059Z,22.20
2022-11-14T06:11:48.055Z,23.10
2022-11-14T06:12:48.077Z,24.60
2022-11-14T06:13:48.044Z,25.00
2022-11-14T06:14:48.039Z,22.70
2022-11-14T06:15:48.025Z,24.40
2022-11-14T06:17:23.479Z,23.70
2022-11-14T06:17:48.176Z,23.70
2022-11-14T06:18:48.236Z,23.10
2022-11-14T06:19:50.023Z,22.70
2022-11-14T06:20:48.159Z,23.90
2022-11-14T06:21:47.997Z,23.10
2022-11-14T06:22:47.979Z,23.10
2022-11-14T06:23:47.969Z,22.80
2022-11-14T06:24:47.969Z,26.40
2022-11-14T06:25:47.985Z,26.70
2022-11-14T06:26:47.949Z,25.20
2022-11-14T06:27:47.967Z,25.90
2022-11-14T06:28:47.925Z,24.80
2022-11-14T06:29:47.926Z,25.70
2022-11-14T06:30:47.964Z,27.00
2022-11-14T06:31:47.908Z,33.50
2022-11-14T06:32:47.890Z,31.60
2022-11-14T06:33:47.895Z,28.40
2022-11-14T06:34:47.893Z,26.60
2022-11-14T06:35:47.927Z,26.10
2022-11-14T06:36:47.877Z,26.90
2022-11-14T06:37:47.871Z,26.50
2022-11-14T06:38:47.858Z,27.70
2022-11-14T06:39:47.846Z,27.70
2022-11-14T06:40:47.898Z,29.00
2022-11-14T06:41:47.839Z,24.40
2022-11-14T06:42:47.851Z,26.00
2022-11-14T06:43:47.840Z,28.00
2022-11-14T06:44:47.818Z,26.90
2022-11-14T06:45:47.862Z,27.20
2022-11-14T06:46:47.810Z,32.00
2022-11-14T06:47:47.804Z,27.30
2022-11-14T06:48:47.802Z,28.00
2022-11-14T06:49:48.791Z,26.00
2022-11-14T06:50:47.811Z,25.90
2022-11-14T06:51:47.795Z,25.10
2022-11-14T06:52:47.778Z,22.30
2022-11-14T06:53:47.756Z,25.80
2022-11-14T06:54:47.757Z,26.90
2022-11-14T06:55:47.762Z,28.30
2022-11-14T06:56:47.736Z,25.50
2022-11-14T06:57:47.738Z,26.80
2022-11-14T06:58:47.720Z,24.20
2022-11-14T06:59:47.726Z,26.70
2022-11-14T07:00:47.750Z,43.30
2022-11-14T07:01:47.703Z,29.90
2022-11-14T07:02:47.854Z,26.40
2022-11-14T07:03:47.707Z,26.90
2022-11-14T07:04:47.686Z,27.70
2022-11-14T07:05:47.715Z,24.90
2022-11-14T07:06:47.677Z,24.40
2022-11-14T07:07:48.662Z,42.60
2022-11-14T07:08:47.629Z,62.70
2022-11-14T07:09:47.640Z,23.10
2022-11-14T07:10:47.649Z,24.80
2022-11-14T07:11:47.619Z,23.10
2022-11-14T07:12:47.599Z,25.00
2022-11-14T07:13:47.604Z,33.00
2022-11-14T07:14:47.589Z,34.10
2022-11-14T07:15:47.674Z,25.10
2022-11-14T07:16:47.587Z,38.00
2022-11-14T07:17:47.593Z,60.30
2022-11-14T07:18:47.585Z,44.40
2022-11-14T07:19:47.549Z,53.70
2022-11-14T07:20:47.584Z,57.40
2022-11-14T07:21:47.534Z,38.20
2022-11-14T07:22:47.540Z,28.20
2022-11-14T07:23:47.537Z,23.70
2022-11-14T07:24:47.555Z,24.80
2022-11-14T07:25:47.530Z,25.50
2022-11-14T07:26:47.547Z,25.20
2022-11-14T07:27:47.507Z,26.40
2022-11-14T07:28:51.928Z,25.80
2022-11-14T07:29:49.515Z,24.80
2022-11-14T07:30:47.512Z,26.40
2022-11-14T07:31:47.480Z,27.20
2022-11-14T07:32:47.494Z,28.60
2022-11-14T07:33:47.463Z,29.10
2022-11-14T07:34:47.468Z,25.50
2022-11-14T07:35:47.493Z,26.20
2022-11-14T07:36:47.440Z,24.50
2022-11-14T07:37:47.427Z,22.40
2022-11-14T07:38:47.420Z,25.40
2022-11-14T07:39:47.427Z,24.80
2022-11-14T07:40:47.443Z,26.80
2022-11-14T07:41:47.388Z,26.30
2022-11-14T07:42:47.400Z,17.10
2022-11-14T07:43:47.389Z,20.80
2022-11-14T07:44:47.379Z,20.00
2022-11-14T07:45:47.402Z,16.90
2022-11-14T07:46:47.368Z,22.50
2022-11-14T07:47:47.368Z,21.00
2022-11-14T07:48:47.347Z,19.20
2022-11-14T07:49:47.343Z,21.50
2022-11-14T07:50:47.367Z,20.40
2022-11-14T07:51:47.334Z,18.90
2022-11-14T07:52:47.312Z,18.30
2022-11-14T07:53:47.320Z,15.70
2022-11-14T07:54:47.307Z,19.80
2022-11-14T07:55:47.415Z,15.90
2022-11-14T07:56:47.288Z,20.30
2022-11-14T07:57:49.365Z,20.20
2022-11-14T07:58:48.278Z,18.70
2022-11-14T07:59:47.286Z,19.30
2022-11-14T08:00:47.309Z,19.30
2022-11-14T08:01:47.332Z,20.60
2022-11-14T08:02:47.244Z,19.80
2022-11-14T08:03:47.247Z,19.10
2022-11-14T08:04:47.233Z,20.90
2022-11-14T08:05:47.221Z,21.20
2022-11-14T08:06:47.268Z,22.40
2022-11-14T08:07:47.229Z,28.90
2022-11-14T08:08:47.228Z,21.00
2022-11-14T08:09:48.191Z,22.90
2022-11-14T08:10:47.166Z,23.70
2022-11-14T08:11:47.185Z,21.60
2022-11-14T08:12:56.200Z,21.70
2022-11-14T08:13:48.167Z,20.60
2022-11-14T08:14:47.146Z,18.80
2022-11-14T08:15:47.143Z,20.40
2022-11-14T08:16:47.152Z,20.80
2022-11-14T08:17:47.140Z,19.20
2022-11-14T08:18:47.121Z,20.00
2022-11-14T08:19:47.121Z,20.10
2022-11-14T08:20:47.100Z,22.70
2022-11-14T08:21:47.166Z,18.00
2022-11-14T08:22:47.080Z,21.10
2022-11-14T08:23:47.090Z,18.30
2022-11-14T08:24:47.090Z,19.00
2022-11-14T08:25:47.080Z,20.10
2022-11-14T08:26:47.072Z,17.70
2022-11-14T08:27:47.048Z,19.60
2022-11-14T08:28:47.064Z,22.20
2022-11-14T08:29:47.033Z,22.90
2022-11-14T08:30:47.067Z,19.10
2022-11-14T08:31:47.062Z,18.00
2022-11-14T08:32:47.009Z,20.00
2022-11-14T08:33:47.018Z,17.90
2022-11-14T08:34:47.063Z,18.70
2022-11-14T08:35:47.022Z,17.10
2022-11-14T08:36:46.997Z,19.70
2022-11-14T08:37:46.992Z,20.20
2022-11-14T08:38:46.987Z,18.80
2022-11-14T08:39:46.962Z,18.60
2022-11-14T08:40:46.954Z,19.90
2022-11-14T08:41:47.048Z,18.70
2022-11-14T08:42:46.939Z,19.90
2022-11-14T08:43:46.914Z,20.20
2022-11-14T08:44:51.885Z,19.40
2022-11-14T08:45:48.920Z,20.10
2022-11-14T08:46:46.937Z,23.00
2022-11-14T08:47:46.896Z,20.30
2022-11-14T08:48:46.899Z,18.10
2022-11-14T08:49:46.884Z,19.00
2022-11-14T08:50:46.879Z,20.20
2022-11-14T08:51:46.903Z,18.80
2022-11-14T08:52:46.857Z,19.90
2022-11-14T08:53:46.865Z,23.40
2022-11-14T08:54:46.857Z,23.70
2022-11-14T08:55:46.913Z,20.30
2022-11-14T08:56:46.874Z,22.90
2022-11-14T08:57:49.787Z,23.10
2022-11-14T08:58:47.818Z,19.50
2022-11-14T08:59:46.808Z,20.00
2022-11-14T09:00:46.808Z,24.20
2022-11-14T09:01:46.820Z,23.90
2022-11-14T09:02:46.861Z,20.70
2022-11-14T09:03:46.880Z,20.60
2022-11-14T09:04:46.799Z,21.20
2022-11-14T09:05:46.763Z,22.20
2022-11-14T09:06:46.860Z,21.60
2022-11-14T09:07:46.724Z,19.50
2022-11-14T09:08:46.707Z,18.50
2022-11-14T09:09:46.716Z,18.80
2022-11-14T09:10:46.700Z,18.50
2022-11-14T09:11:46.720Z,21.30
2022-11-14T09:12:46.676Z,19.40
2022-11-14T09:13:46.664Z,20.20
2022-11-14T09:14:46.660Z,17.70
2022-11-14T09:15:46.650Z,19.70
2022-11-14T09:16:46.673Z,18.20
2022-11-14T09:17:46.639Z,21.90
2022-11-14T09:18:46.624Z,30.70
2022-11-14T09:19:46.618Z,27.80
2022-11-14T09:20:46.617Z,24.70
2022-11-14T09:21:46.631Z,21.10
2022-11-14T09:22:46.630Z,20.70
2022-11-14T09:23:46.606Z,21.80
2022-11-14T09:24:46.581Z,20.30
2022-11-14T09:25:46.576Z,20.00
2022-11-14T09:26:46.603Z,18.20
2022-11-14T09:27:46.568Z,22.10
2022-11-14T09:28:46.572Z,19.20
2022-11-14T09:29:46.547Z,21.10
2022-11-14T09:30:46.548Z,23.10
2022-11-14T09:31:46.565Z,19.90
2022-11-14T09:32:46.527Z,19.90
2022-11-14T09:33:46.515Z,20.40
2022-11-14T09:34:46.508Z,18.10
2022-11-14T09:35:46.526Z,20.20
2022-11-14T09:36:46.522Z,19.70
2022-11-14T09:37:46.483Z,17.40
2022-11-14T09:38:46.474Z,20.00
2022-11-14T09:39:46.465Z,21.10
2022-11-14T09:40:46.493Z,20.90
2022-11-14T09:41:46.459Z,18.30
2022-11-14T09:42:46.452Z,17.90
2022-11-14T09:43:46.434Z,17.90
2022-11-14T09:44:46.431Z,17.30
2022-11-14T09:45:46.445Z,19.00
2022-11-14T09:46:46.421Z,19.30
2022-11-14T09:47:46.400Z,21.40
2022-11-14T09:48:46.393Z,18.60
2022-11-14T09:49:46.390Z,19.30
2022-11-14T09:50:46.405Z,18.30
2022-11-14T09:51:46.369Z,17.30
2022-11-14T09:52:46.405Z,16.80
2022-11-14T09:53:46.355Z,18.00
2022-11-14T09:54:46.343Z,18.50
2022-11-14T09:55:46.367Z,19.20
2022-11-14T09:56:46.346Z,18.50
2022-11-14T09:57:46.359Z,17.90
2022-11-14T09:58:46.315Z,18.40
2022-11-14T09:59:46.318Z,21.00
2022-11-14T10:00:46.332Z,18.20
2022-11-14T10:01:46.346Z,18.90
2022-11-14T10:02:46.288Z,19.00
2022-11-14T10:03:46.271Z,18.30
2022-11-14T10:04:46.269Z,19.00
2022-11-14T10:05:46.290Z,18.50
2022-11-14T10:06:46.269Z,18.20
2022-11-14T10:07:46.242Z,21.00
2022-11-14T10:08:46.242Z,18.60
2022-11-14T10:09:46.233Z,19.80
2022-11-14T10:10:46.232Z,17.70
2022-11-14T10:11:46.238Z,19.20
2022-11-14T10:12:46.224Z,17.90
2022-11-14T10:13:46.196Z,20.20
2022-11-14T10:14:46.190Z,20.00
2022-11-14T10:15:46.177Z,18.20
2022-11-14T10:16:46.200Z,19.70
2022-11-14T10:17:46.160Z,19.40
2022-11-14T10:18:46.158Z,18.10
2022-11-14T10:19:46.156Z,19.40
2022-11-14T10:20:46.134Z,21.00
2022-11-14T10:21:46.168Z,21.10
2022-11-14T10:22:46.126Z,21.00
2022-11-14T10:23:46.123Z,21.10
2022-11-14T10:24:46.111Z,21.50
2022-11-14T10:25:46.113Z,21.30
2022-11-14T10:26:46.121Z,19.10
2022-11-14T10:27:46.975Z,18.30
2022-11-14T10:28:46.093Z,20.20
2022-11-14T10:29:46.075Z,20.90
2022-11-14T10:30:46.067Z,19.80
2022-11-14T10:31:46.108Z,20.80
2022-11-14T10:32:46.053Z,21.20
2022-11-14T10:33:46.047Z,22.20
2022-11-14T10:34:46.036Z,21.80
2022-11-14T10:35:46.027Z,21.30
2022-11-14T10:36:46.043Z,22.20
2022-11-14T10:37:46.002Z,20.20
2022-11-14T10:38:45.995Z,21.10
2022-11-14T10:39:46.005Z,20.50
2022-11-14T10:40:46.001Z,22.30
2022-11-14T10:42:06.228Z,21.40
2022-11-14T10:42:47.967Z,19.70
2022-11-14T10:43:45.963Z,21.30
2022-11-14T10:44:45.965Z,21.60
2022-11-14T10:45:45.949Z,21.20
2022-11-14T10:46:46.131Z,20.40
2022-11-14T10:47:45.944Z,22.20
2022-11-14T10:48:45.922Z,20.60
2022-11-14T10:49:45.916Z,22.30
2022-11-14T10:50:45.915Z,20.20
2022-11-14T10:51:45.971Z,22.40
2022-11-14T10:52:45.991Z,20.90
2022-11-14T10:53:45.890Z,21.50
2022-11-14T10:54:45.894Z,22.00
2022-11-14T10:56:02.944Z,20.10
2022-11-14T10:56:47.895Z,19.70
2022-11-14T10:57:45.859Z,19.90
2022-11-14T10:58:49.082Z,21.30
2022-11-14T10:59:46.835Z,20.70
2022-11-14T11:00:45.899Z,22.30
2022-11-14T11:01:46.214Z,21.50
2022-11-14T11:02:45.901Z,20.80
2022-11-14T11:03:45.829Z,22.40
2022-11-14T11:04:45.805Z,20.10
2022-11-14T11:05:45.820Z,23.10
2022-11-14T11:06:45.850Z,21.20
2022-11-14T11:07:45.782Z,20.90
2022-11-14T11:08:46.115Z,21.00
2022-11-14T11:09:46.298Z,19.40
2022-11-14T11:10:46.817Z,23.50
2022-11-14T11:11:45.772Z,22.10
2022-11-14T11:12:45.772Z,22.40
2022-11-14T11:13:45.734Z,20.00
2022-11-14T11:14:45.725Z,21.60
2022-11-14T11:15:45.720Z,20.60
2022-11-14T11:16:46.204Z,20.30
2022-11-14T11:17:45.707Z,21.70
2022-11-14T11:18:50.543Z,22.00
2022-11-14T11:19:47.685Z,20.00
2022-11-14T11:20:45.684Z,20.00
2022-11-14T11:21:45.755Z,20.10
2022-11-14T11:22:45.666Z,20.40
2022-11-14T11:23:45.656Z,19.90
2022-11-14T11:24:45.648Z,21.00
2022-11-14T11:25:45.645Z,20.10
2022-11-14T11:26:45.725Z,21.00
2022-11-14T11:27:45.623Z,19.40
2022-11-14T11:28:45.616Z,22.00
2022-11-14T11:29:45.617Z,20.20
2022-11-14T11:30:49.423Z,20.90
2022-11-14T11:31:46.630Z,22.20
2022-11-14T11:32:45.597Z,21.00
2022-11-14T11:33:45.592Z,23.70
2022-11-14T11:34:45.570Z,24.10
2022-11-14T11:35:45.638Z,20.30
2022-11-14T11:36:45.566Z,21.70
2022-11-14T11:37:45.554Z,20.00
2022-11-14T11:38:45.546Z,20.90
2022-11-14T11:39:45.538Z,19.40
2022-11-14T11:40:45.556Z,20.30
2022-11-14T11:42:08.783Z,20.60
2022-11-14T11:43:36.675Z,21.00
2022-11-14T11:43:49.439Z,20.50
2022-11-14T11:44:46.499Z,19.50
2022-11-14T11:45:45.527Z,20.60
2022-11-14T11:46:45.481Z,20.30
2022-11-14T11:47:45.482Z,21.10
2022-11-14T11:48:45.464Z,20.80
2022-11-14T11:49:50.043Z,19.90
2022-11-14T11:50:47.490Z,20.40
2022-11-14T11:51:45.439Z,21.30
2022-11-14T11:52:45.438Z,20.20
2022-11-14T11:53:45.429Z,20.90
2022-11-14T11:54:45.423Z,20.50
2022-11-14T11:55:45.451Z,20.70
2022-11-14T11:56:45.406Z,20.50
2022-11-14T11:57:45.400Z,20.40
2022-11-14T11:58:45.394Z,21.60
2022-11-14T11:59:45.431Z,20.90
2022-11-14T12:00:45.379Z,19.50
2022-11-14T12:01:45.393Z,19.40
2022-11-14T12:02:49.751Z,19.80
2022-11-14T12:03:46.430Z,19.50
2022-11-14T12:04:45.361Z,21.50
2022-11-14T12:05:45.367Z,20.40
2022-11-14T12:06:45.395Z,19.80
2022-11-14T12:07:45.321Z,20.20
2022-11-14T12:08:45.323Z,22.30
2022-11-14T12:10:11.237Z,19.80
2022-11-14T12:10:47.300Z,18.80
2022-11-14T12:11:45.346Z,20.70
2022-11-14T12:12:45.283Z,21.00
2022-11-14T12:13:45.268Z,21.40
2022-11-14T12:14:45.371Z,20.30
2022-11-14T12:15:45.287Z,21.50
2022-11-14T12:17:19.571Z,20.30
2022-11-14T12:17:45.246Z,19.60
2022-11-14T12:18:45.243Z,19.40
2022-11-14T12:19:45.228Z,20.10
2022-11-14T12:20:45.247Z,19.70
2022-11-14T12:21:45.211Z,20.90
2022-11-14T12:22:45.205Z,20.10
2022-11-14T12:23:45.197Z,21.80
2022-11-14T12:24:45.194Z,20.60
2022-11-14T12:25:45.211Z,19.30
2022-11-14T12:26:45.174Z,20.50
2022-11-14T12:27:45.228Z,21.70
2022-11-14T12:28:45.160Z,20.10
2022-11-14T12:29:45.151Z,19.40
2022-11-14T12:30:45.200Z,19.80
2022-11-14T12:31:45.143Z,18.70
2022-11-14T12:32:45.148Z,20.20
2022-11-14T12:33:45.122Z,19.70
2022-11-14T12:34:45.115Z,20.80
2022-11-14T12:35:45.135Z,19.90
2022-11-14T12:36:45.103Z,18.80
2022-11-14T12:37:45.143Z,19.50
2022-11-14T12:38:45.086Z,21.00
2022-11-14T12:39:45.073Z,21.80
2022-11-14T12:40:45.093Z,21.40
2022-11-14T12:41:45.074Z,19.30
2022-11-14T12:42:45.068Z,21.20
2022-11-14T12:43:45.244Z,19.60
2022-11-14T12:44:45.034Z,19.80
2022-11-14T12:45:45.067Z,19.00
2022-11-14T12:46:45.033Z,19.20
2022-11-14T12:47:45.046Z,18.60
2022-11-14T12:48:45.011Z,19.50
2022-11-14T12:49:45.009Z,18.50
2022-11-14T12:50:45.114Z,19.30
2022-11-14T12:51:44.980Z,19.30
2022-11-14T12:52:44.984Z,20.00
2022-11-14T12:53:44.994Z,19.70